sensor_id;sensor_type;location;lat;lon;timestamp;P1;durP1;ratioP1;P2;durP2;ratioP2
13067;SDS011;6600;51.362;6.686;2023-05-07T00:01:49;1.50;;;1.40;;
13067;SDS011;6600;51.362;6.686;2023-05-07T00:04:14;1.10;;;1.10;;
13067;SDS011;6600;51.362;6.686;2023-05-07T00:06:39;1.07;;;0.97;;
13067;SDS011;6600;51.362;6.686;2023-05-07T00:09:05;1.40;;;1.30;;
13067;SDS011;6600;51.362;6.686;2023-05-07T00:11:31;1.57;;;1.47;;
13067;SDS011;6600;51.362;6.686;2023-05-07T00:13:57;1.23;;;1.13;;
13067;SDS011;6600;51.362;6.686;2023-05-07T00:16:22;1.30;;;1.20;;
13067;SDS011;6600;51.362;6.686;2023-05-07T00:18:48;1.47;;;1.37;;
13067;SDS011;6600;51.362;6.686;2023-05-07T00:21:13;2.37;;;1.20;;
13067;SDS011;6600;51.362;6.686;2023-05-07T00:23:38;1.70;;;1.40;;
13067;SDS011;6600;51.362;6.686;2023-05-07T00:26:04;1.60;;;1.30;;
13067;SDS011;6600;51.362;6.686;2023-05-07T00:28:29;1.83;;;1.20;;
13067;SDS011;6600;51.362;6.686;2023-05-07T00:30:55;1.33;;;1.10;;
13067;SDS011;6600;51.362;6.686;2023-05-07T00:33:20;1.93;;;1.37;;
13067;SDS011;6600;51.362;6.686;2023-05-07T00:35:47;1.67;;;1.27;;
13067;SDS011;6600;51.362;6.686;2023-05-07T00:38:12;2.07;;;1.50;;
13067;SDS011;6600;51.362;6.686;2023-05-07T00:40:37;1.57;;;1.07;;
13067;SDS011;6600;51.362;6.686;2023-05-07T00:43:03;1.47;;;1.37;;
13067;SDS011;6600;51.362;6.686;2023-05-07T00:45:28;1.17;;;1.07;;
13067;SDS011;6600;51.362;6.686;2023-05-07T00:47:54;1.30;;;1.10;;
13067;SDS011;6600;51.362;6.686;2023-05-07T00:50:20;1.20;;;1.10;;
13067;SDS011;6600;51.362;6.686;2023-05-07T00:52:47;1.13;;;1.03;;
13067;SDS011;6600;51.362;6.686;2023-05-07T00:55:12;1.63;;;1.50;;
13067;SDS011;6600;51.362;6.686;2023-05-07T00:57:39;1.50;;;1.00;;
13067;SDS011;6600;51.362;6.686;2023-05-07T01:00:06;1.60;;;1.23;;
13067;SDS011;6600;51.362;6.686;2023-05-07T01:02:34;1.00;;;1.00;;
13067;SDS011;6600;51.362;6.686;2023-05-07T01:05:00;1.40;;;1.30;;
13067;SDS011;6600;51.362;6.686;2023-05-07T01:07:26;1.40;;;1.30;;
13067;SDS011;6600;51.362;6.686;2023-05-07T01:09:52;1.00;;;1.00;;
13067;SDS011;6600;51.362;6.686;2023-05-07T01:12:18;2.67;;;1.33;;
13067;SDS011;6600;51.362;6.686;2023-05-07T01:14:44;3.77;;;1.20;;
13067;SDS011;6600;51.362;6.686;2023-05-07T01:17:09;1.23;;;1.20;;
13067;SDS011;6600;51.362;6.686;2023-05-07T01:19:35;1.77;;;1.67;;
13067;SDS011;6600;51.362;6.686;2023-05-07T01:22:01;1.57;;;1.47;;
13067;SDS011;6600;51.362;6.686;2023-05-07T01:24:32;1.53;;;1.43;;
13067;SDS011;6600;51.362;6.686;2023-05-07T01:26:58;1.70;;;1.60;;
13067;SDS011;6600;51.362;6.686;2023-05-07T01:29:23;1.80;;;1.43;;
13067;SDS011;6600;51.362;6.686;2023-05-07T01:31:48;1.57;;;1.47;;
13067;SDS011;6600;51.362;6.686;2023-05-07T01:34:16;1.60;;;1.50;;
13067;SDS011;6600;51.362;6.686;2023-05-07T01:36:43;1.50;;;1.40;;
13067;SDS011;6600;51.362;6.686;2023-05-07T01:39:09;2.43;;;1.70;;
13067;SDS011;6600;51.362;6.686;2023-05-07T01:41:35;1.83;;;1.70;;
13067;SDS011;6600;51.362;6.686;2023-05-07T01:44:00;1.67;;;1.57;;
13067;SDS011;6600;51.362;6.686;2023-05-07T01:46:28;3.07;;;1.80;;
13067;SDS011;6600;51.362;6.686;2023-05-07T01:48:54;1.90;;;1.43;;
13067;SDS011;6600;51.362;6.686;2023-05-07T01:51:20;2.47;;;1.63;;
13067;SDS011;6600;51.362;6.686;2023-05-07T01:53:47;3.40;;;2.13;;
13067;SDS011;6600;51.362;6.686;2023-05-07T01:56:15;2.40;;;1.70;;
13067;SDS011;6600;51.362;6.686;2023-05-07T01:58:41;2.03;;;1.57;;
13067;SDS011;6600;51.362;6.686;2023-05-07T02:01:07;1.77;;;1.67;;
13067;SDS011;6600;51.362;6.686;2023-05-07T02:03:32;2.60;;;1.80;;
13067;SDS011;6600;51.362;6.686;2023-05-07T02:05:57;2.00;;;1.80;;
13067;SDS011;6600;51.362;6.686;2023-05-07T02:08:23;1.73;;;1.57;;
13067;SDS011;6600;51.362;6.686;2023-05-07T02:10:48;2.53;;;1.80;;
13067;SDS011;6600;51.362;6.686;2023-05-07T02:13:14;4.17;;;1.47;;
13067;SDS011;6600;51.362;6.686;2023-05-07T02:15:40;1.83;;;1.70;;
13067;SDS011;6600;51.362;6.686;2023-05-07T02:18:06;1.73;;;1.60;;
13067;SDS011;6600;51.362;6.686;2023-05-07T02:20:33;2.10;;;1.90;;
13067;SDS011;6600;51.362;6.686;2023-05-07T02:22:59;4.23;;;2.40;;
13067;SDS011;6600;51.362;6.686;2023-05-07T02:25:25;2.10;;;1.90;;
13067;SDS011;6600;51.362;6.686;2023-05-07T02:27:50;2.27;;;2.07;;
13067;SDS011;6600;51.362;6.686;2023-05-07T02:30:16;2.33;;;2.13;;
13067;SDS011;6600;51.362;6.686;2023-05-07T02:32:41;2.57;;;2.37;;
13067;SDS011;6600;51.362;6.686;2023-05-07T02:35:07;3.03;;;2.73;;
13067;SDS011;6600;51.362;6.686;2023-05-07T02:37:32;3.53;;;2.60;;
13067;SDS011;6600;51.362;6.686;2023-05-07T02:39:58;2.30;;;2.10;;
13067;SDS011;6600;51.362;6.686;2023-05-07T02:42:23;3.23;;;2.47;;
13067;SDS011;6600;51.362;6.686;2023-05-07T02:44:48;2.73;;;2.37;;
13067;SDS011;6600;51.362;6.686;2023-05-07T02:47:14;2.40;;;1.97;;
13067;SDS011;6600;51.362;6.686;2023-05-07T02:49:40;2.60;;;2.40;;
13067;SDS011;6600;51.362;6.686;2023-05-07T02:52:05;2.43;;;2.20;;
13067;SDS011;6600;51.362;6.686;2023-05-07T02:54:31;2.33;;;2.03;;
13067;SDS011;6600;51.362;6.686;2023-05-07T02:56:56;2.57;;;2.00;;
13067;SDS011;6600;51.362;6.686;2023-05-07T02:59:22;3.57;;;2.27;;
13067;SDS011;6600;51.362;6.686;2023-05-07T03:01:48;3.53;;;2.67;;
13067;SDS011;6600;51.362;6.686;2023-05-07T03:04:14;2.33;;;2.13;;
13067;SDS011;6600;51.362;6.686;2023-05-07T03:06:39;2.50;;;2.30;;
13067;SDS011;6600;51.362;6.686;2023-05-07T03:09:04;2.70;;;2.50;;
13067;SDS011;6600;51.362;6.686;2023-05-07T03:11:30;2.87;;;2.20;;
13067;SDS011;6600;51.362;6.686;2023-05-07T03:13:55;2.47;;;1.80;;
13067;SDS011;6600;51.362;6.686;2023-05-07T03:16:20;3.13;;;2.37;;
13067;SDS011;6600;51.362;6.686;2023-05-07T03:18:46;2.37;;;1.53;;
13067;SDS011;6600;51.362;6.686;2023-05-07T03:21:11;1.50;;;1.40;;
13067;SDS011;6600;51.362;6.686;2023-05-07T03:23:37;2.17;;;1.60;;
13067;SDS011;6600;51.362;6.686;2023-05-07T03:26:02;1.67;;;1.57;;
13067;SDS011;6600;51.362;6.686;2023-05-07T03:28:27;2.43;;;1.30;;
13067;SDS011;6600;51.362;6.686;2023-05-07T03:30:53;1.97;;;1.40;;
13067;SDS011;6600;51.362;6.686;2023-05-07T03:33:18;1.73;;;1.63;;
13067;SDS011;6600;51.362;6.686;2023-05-07T03:35:43;2.00;;;1.77;;
13067;SDS011;6600;51.362;6.686;2023-05-07T03:38:09;1.20;;;1.10;;
13067;SDS011;6600;51.362;6.686;2023-05-07T03:40:34;1.80;;;1.70;;
13067;SDS011;6600;51.362;6.686;2023-05-07T03:43:00;2.43;;;2.23;;
13067;SDS011;6600;51.362;6.686;2023-05-07T03:45:25;3.70;;;2.30;;
13067;SDS011;6600;51.362;6.686;2023-05-07T03:47:51;2.67;;;2.33;;
13067;SDS011;6600;51.362;6.686;2023-05-07T03:50:16;2.27;;;2.07;;
13067;SDS011;6600;51.362;6.686;2023-05-07T03:52:41;2.50;;;2.30;;
13067;SDS011;6600;51.362;6.686;2023-05-07T03:55:07;2.93;;;2.37;;
13067;SDS011;6600;51.362;6.686;2023-05-07T03:57:33;3.17;;;2.03;;
13067;SDS011;6600;51.362;6.686;2023-05-07T03:59:58;1.70;;;1.50;;
13067;SDS011;6600;51.362;6.686;2023-05-07T04:02:23;2.10;;;1.57;;
13067;SDS011;6600;51.362;6.686;2023-05-07T04:04:49;1.97;;;1.77;;
13067;SDS011;6600;51.362;6.686;2023-05-07T04:07:14;2.47;;;1.70;;
13067;SDS011;6600;51.362;6.686;2023-05-07T04:09:40;1.67;;;1.50;;
13067;SDS011;6600;51.362;6.686;2023-05-07T04:12:05;3.40;;;2.43;;
13067;SDS011;6600;51.362;6.686;2023-05-07T04:14:31;2.37;;;2.00;;
13067;SDS011;6600;51.362;6.686;2023-05-07T04:16:57;2.07;;;1.93;;
13067;SDS011;6600;51.362;6.686;2023-05-07T04:19:23;1.97;;;1.80;;
13067;SDS011;6600;51.362;6.686;2023-05-07T04:21:49;2.30;;;2.10;;
13067;SDS011;6600;51.362;6.686;2023-05-07T04:24:14;2.20;;;2.00;;
13067;SDS011;6600;51.362;6.686;2023-05-07T04:26:39;1.83;;;1.70;;
13067;SDS011;6600;51.362;6.686;2023-05-07T04:29:05;3.30;;;1.73;;
13067;SDS011;6600;51.362;6.686;2023-05-07T04:31:30;2.30;;;2.10;;
13067;SDS011;6600;51.362;6.686;2023-05-07T04:33:56;1.83;;;1.73;;
13067;SDS011;6600;51.362;6.686;2023-05-07T04:36:22;2.07;;;1.17;;
13067;SDS011;6600;51.362;6.686;2023-05-07T04:38:47;1.53;;;1.40;;
13067;SDS011;6600;51.362;6.686;2023-05-07T04:41:12;1.37;;;1.23;;
13067;SDS011;6600;51.362;6.686;2023-05-07T04:43:38;1.10;;;1.10;;
13067;SDS011;6600;51.362;6.686;2023-05-07T04:46:03;1.33;;;1.23;;
13067;SDS011;6600;51.362;6.686;2023-05-07T04:48:28;1.40;;;1.30;;
13067;SDS011;6600;51.362;6.686;2023-05-07T04:50:54;1.57;;;1.37;;
13067;SDS011;6600;51.362;6.686;2023-05-07T04:53:20;1.40;;;1.30;;
13067;SDS011;6600;51.362;6.686;2023-05-07T04:55:46;1.47;;;1.27;;
13067;SDS011;6600;51.362;6.686;2023-05-07T04:58:11;1.07;;;1.03;;
13067;SDS011;6600;51.362;6.686;2023-05-07T05:00:37;1.00;;;1.00;;
13067;SDS011;6600;51.362;6.686;2023-05-07T05:03:03;1.53;;;1.10;;
13067;SDS011;6600;51.362;6.686;2023-05-07T05:05:30;1.50;;;1.40;;
13067;SDS011;6600;51.362;6.686;2023-05-07T05:07:55;1.70;;;1.57;;
13067;SDS011;6600;51.362;6.686;2023-05-07T05:10:21;1.40;;;1.30;;
13067;SDS011;6600;51.362;6.686;2023-05-07T05:12:47;2.37;;;1.67;;
13067;SDS011;6600;51.362;6.686;2023-05-07T05:15:12;1.83;;;1.70;;
13067;SDS011;6600;51.362;6.686;2023-05-07T05:17:38;1.70;;;1.60;;
13067;SDS011;6600;51.362;6.686;2023-05-07T05:20:04;2.10;;;1.73;;
13067;SDS011;6600;51.362;6.686;2023-05-07T05:22:31;1.53;;;1.40;;
13067;SDS011;6600;51.362;6.686;2023-05-07T05:24:57;2.03;;;1.57;;
13067;SDS011;6600;51.362;6.686;2023-05-07T05:27:22;2.00;;;1.53;;
13067;SDS011;6600;51.362;6.686;2023-05-07T05:29:48;1.30;;;1.30;;
13067;SDS011;6600;51.362;6.686;2023-05-07T05:32:13;1.67;;;1.57;;
13067;SDS011;6600;51.362;6.686;2023-05-07T05:34:38;1.20;;;1.10;;
13067;SDS011;6600;51.362;6.686;2023-05-07T05:37:04;1.53;;;1.43;;
13067;SDS011;6600;51.362;6.686;2023-05-07T05:39:29;1.67;;;1.30;;
13067;SDS011;6600;51.362;6.686;2023-05-07T05:41:54;1.40;;;1.30;;
13067;SDS011;6600;51.362;6.686;2023-05-07T05:44:20;1.50;;;1.37;;
13067;SDS011;6600;51.362;6.686;2023-05-07T05:46:45;1.87;;;1.23;;
13067;SDS011;6600;51.362;6.686;2023-05-07T05:49:10;2.27;;;1.10;;
13067;SDS011;6600;51.362;6.686;2023-05-07T05:51:36;1.63;;;1.53;;
13067;SDS011;6600;51.362;6.686;2023-05-07T05:54:01;1.20;;;1.00;;
13067;SDS011;6600;51.362;6.686;2023-05-07T05:56:26;2.73;;;1.47;;
13067;SDS011;6600;51.362;6.686;2023-05-07T05:58:52;0.80;;;0.80;;
13067;SDS011;6600;51.362;6.686;2023-05-07T06:01:18;1.07;;;1.00;;
13067;SDS011;6600;51.362;6.686;2023-05-07T06:03:43;1.67;;;1.20;;
13067;SDS011;6600;51.362;6.686;2023-05-07T06:06:09;1.77;;;1.40;;
13067;SDS011;6600;51.362;6.686;2023-05-07T06:08:34;1.43;;;1.20;;
13067;SDS011;6600;51.362;6.686;2023-05-07T06:11:00;1.37;;;1.27;;
13067;SDS011;6600;51.362;6.686;2023-05-07T06:13:26;1.60;;;1.47;;
13067;SDS011;6600;51.362;6.686;2023-05-07T06:15:51;1.47;;;1.37;;
13067;SDS011;6600;51.362;6.686;2023-05-07T06:18:17;1.20;;;1.20;;
13067;SDS011;6600;51.362;6.686;2023-05-07T06:20:42;1.97;;;1.70;;
13067;SDS011;6600;51.362;6.686;2023-05-07T06:23:07;1.20;;;1.20;;
13067;SDS011;6600;51.362;6.686;2023-05-07T06:25:33;1.77;;;1.13;;
13067;SDS011;6600;51.362;6.686;2023-05-07T06:27:58;1.57;;;1.40;;
13067;SDS011;6600;51.362;6.686;2023-05-07T06:30:23;1.30;;;1.20;;
13067;SDS011;6600;51.362;6.686;2023-05-07T06:32:49;1.77;;;1.47;;
13067;SDS011;6600;51.362;6.686;2023-05-07T06:35:14;1.50;;;1.40;;
13067;SDS011;6600;51.362;6.686;2023-05-07T06:37:41;1.40;;;1.30;;
13067;SDS011;6600;51.362;6.686;2023-05-07T06:40:07;1.47;;;1.40;;
13067;SDS011;6600;51.362;6.686;2023-05-07T06:42:33;1.37;;;1.27;;
13067;SDS011;6600;51.362;6.686;2023-05-07T06:44:58;1.40;;;1.20;;
13067;SDS011;6600;51.362;6.686;2023-05-07T06:47:24;1.50;;;1.40;;
13067;SDS011;6600;51.362;6.686;2023-05-07T06:49:49;1.43;;;1.33;;
13067;SDS011;6600;51.362;6.686;2023-05-07T06:52:14;1.13;;;1.07;;
13067;SDS011;6600;51.362;6.686;2023-05-07T06:54:40;1.80;;;1.03;;
13067;SDS011;6600;51.362;6.686;2023-05-07T06:57:05;1.50;;;1.40;;
13067;SDS011;6600;51.362;6.686;2023-05-07T06:59:31;1.03;;;1.00;;
13067;SDS011;6600;51.362;6.686;2023-05-07T07:01:56;1.43;;;1.30;;
13067;SDS011;6600;51.362;6.686;2023-05-07T07:04:21;1.30;;;1.20;;
13067;SDS011;6600;51.362;6.686;2023-05-07T07:06:48;1.60;;;1.10;;
13067;SDS011;6600;51.362;6.686;2023-05-07T07:09:14;0.90;;;0.80;;
13067;SDS011;6600;51.362;6.686;2023-05-07T07:11:39;1.60;;;1.40;;
13067;SDS011;6600;51.362;6.686;2023-05-07T07:14:04;1.93;;;1.10;;
13067;SDS011;6600;51.362;6.686;2023-05-07T07:16:30;2.57;;;1.07;;
13067;SDS011;6600;51.362;6.686;2023-05-07T07:18:55;1.17;;;1.00;;
13067;SDS011;6600;51.362;6.686;2023-05-07T07:21:20;2.07;;;1.20;;
13067;SDS011;6600;51.362;6.686;2023-05-07T07:23:46;0.77;;;0.77;;
13067;SDS011;6600;51.362;6.686;2023-05-07T07:26:11;0.70;;;0.70;;
13067;SDS011;6600;51.362;6.686;2023-05-07T07:28:41;1.27;;;0.80;;
13067;SDS011;6600;51.362;6.686;2023-05-07T07:31:07;1.90;;;1.43;;
13067;SDS011;6600;51.362;6.686;2023-05-07T07:33:33;1.07;;;1.03;;
13067;SDS011;6600;51.362;6.686;2023-05-07T07:35:58;0.87;;;0.87;;
13067;SDS011;6600;51.362;6.686;2023-05-07T07:38:23;1.40;;;1.07;;
13067;SDS011;6600;51.362;6.686;2023-05-07T07:40:49;1.40;;;1.30;;
13067;SDS011;6600;51.362;6.686;2023-05-07T07:43:14;1.20;;;1.10;;
13067;SDS011;6600;51.362;6.686;2023-05-07T07:45:39;0.70;;;0.70;;
13067;SDS011;6600;51.362;6.686;2023-05-07T07:48:05;1.80;;;1.03;;
13067;SDS011;6600;51.362;6.686;2023-05-07T07:50:30;0.83;;;0.83;;
13067;SDS011;6600;51.362;6.686;2023-05-07T07:52:56;0.70;;;0.70;;
13067;SDS011;6600;51.362;6.686;2023-05-07T07:55:22;1.37;;;0.87;;
13067;SDS011;6600;51.362;6.686;2023-05-07T07:57:48;0.67;;;0.67;;
13067;SDS011;6600;51.362;6.686;2023-05-07T08:00:14;1.20;;;1.00;;
13067;SDS011;6600;51.362;6.686;2023-05-07T08:02:40;1.40;;;0.90;;
13067;SDS011;6600;51.362;6.686;2023-05-07T08:05:06;1.30;;;1.20;;
13067;SDS011;6600;51.362;6.686;2023-05-07T08:07:31;1.63;;;1.10;;
13067;SDS011;6600;51.362;6.686;2023-05-07T08:09:57;1.10;;;1.00;;
13067;SDS011;6600;51.362;6.686;2023-05-07T08:12:22;1.03;;;1.00;;
13067;SDS011;6600;51.362;6.686;2023-05-07T08:14:47;0.90;;;0.90;;
13067;SDS011;6600;51.362;6.686;2023-05-07T08:17:13;0.93;;;0.83;;
13067;SDS011;6600;51.362;6.686;2023-05-07T08:19:40;0.90;;;0.90;;
13067;SDS011;6600;51.362;6.686;2023-05-07T08:22:06;0.90;;;0.90;;
13067;SDS011;6600;51.362;6.686;2023-05-07T08:24:31;0.97;;;0.97;;
13067;SDS011;6600;51.362;6.686;2023-05-07T08:26:57;1.67;;;1.10;;
13067;SDS011;6600;51.362;6.686;2023-05-07T08:29:22;1.20;;;1.10;;
13067;SDS011;6600;51.362;6.686;2023-05-07T08:31:47;2.70;;;1.27;;
13067;SDS011;6600;51.362;6.686;2023-05-07T08:34:12;1.00;;;1.00;;
13067;SDS011;6600;51.362;6.686;2023-05-07T08:36:38;1.07;;;0.90;;
13067;SDS011;6600;51.362;6.686;2023-05-07T08:39:03;1.27;;;0.70;;
13067;SDS011;6600;51.362;6.686;2023-05-07T08:41:29;1.20;;;1.10;;
13067;SDS011;6600;51.362;6.686;2023-05-07T08:43:54;1.23;;;1.13;;
13067;SDS011;6600;51.362;6.686;2023-05-07T08:46:23;0.90;;;0.90;;
13067;SDS011;6600;51.362;6.686;2023-05-07T08:48:50;1.13;;;1.00;;
13067;SDS011;6600;51.362;6.686;2023-05-07T08:51:18;1.53;;;0.97;;
13067;SDS011;6600;51.362;6.686;2023-05-07T08:53:44;0.80;;;0.80;;
13067;SDS011;6600;51.362;6.686;2023-05-07T08:56:11;0.93;;;0.93;;
13067;SDS011;6600;51.362;6.686;2023-05-07T08:58:37;1.00;;;1.00;;
13067;SDS011;6600;51.362;6.686;2023-05-07T09:01:03;0.80;;;0.80;;
13067;SDS011;6600;51.362;6.686;2023-05-07T09:03:32;0.90;;;0.90;;
13067;SDS011;6600;51.362;6.686;2023-05-07T09:05:58;1.67;;;0.80;;
13067;SDS011;6600;51.362;6.686;2023-05-07T09:08:26;1.23;;;1.13;;
13067;SDS011;6600;51.362;6.686;2023-05-07T09:10:52;0.80;;;0.80;;
13067;SDS011;6600;51.362;6.686;2023-05-07T09:13:18;1.00;;;1.00;;
13067;SDS011;6600;51.362;6.686;2023-05-07T09:15:44;1.10;;;0.80;;
13067;SDS011;6600;51.362;6.686;2023-05-07T09:18:10;0.73;;;0.73;;
13067;SDS011;6600;51.362;6.686;2023-05-07T09:20:36;0.90;;;0.90;;
13067;SDS011;6600;51.362;6.686;2023-05-07T09:23:02;1.03;;;0.90;;
13067;SDS011;6600;51.362;6.686;2023-05-07T09:25:28;0.83;;;0.83;;
13067;SDS011;6600;51.362;6.686;2023-05-07T09:27:55;1.00;;;0.90;;
13067;SDS011;6600;51.362;6.686;2023-05-07T09:30:20;0.90;;;0.90;;
13067;SDS011;6600;51.362;6.686;2023-05-07T09:32:45;1.10;;;1.00;;
13067;SDS011;6600;51.362;6.686;2023-05-07T09:35:14;1.20;;;1.10;;
13067;SDS011;6600;51.362;6.686;2023-05-07T09:37:41;0.87;;;0.87;;
13067;SDS011;6600;51.362;6.686;2023-05-07T09:40:07;1.13;;;0.60;;
13067;SDS011;6600;51.362;6.686;2023-05-07T09:42:34;0.80;;;0.80;;
13067;SDS011;6600;51.362;6.686;2023-05-07T09:44:59;0.83;;;0.83;;
13067;SDS011;6600;51.362;6.686;2023-05-07T09:47:25;1.13;;;1.13;;
13067;SDS011;6600;51.362;6.686;2023-05-07T09:49:57;0.90;;;0.90;;
13067;SDS011;6600;51.362;6.686;2023-05-07T09:52:24;0.83;;;0.83;;
13067;SDS011;6600;51.362;6.686;2023-05-07T09:54:58;1.53;;;1.10;;
13067;SDS011;6600;51.362;6.686;2023-05-07T09:57:25;0.87;;;0.87;;
13067;SDS011;6600;51.362;6.686;2023-05-07T09:59:50;0.70;;;0.70;;
13067;SDS011;6600;51.362;6.686;2023-05-07T10:02:18;1.00;;;1.00;;
13067;SDS011;6600;51.362;6.686;2023-05-07T10:04:45;0.73;;;0.70;;
13067;SDS011;6600;51.362;6.686;2023-05-07T10:07:11;1.27;;;1.00;;
13067;SDS011;6600;51.362;6.686;2023-05-07T10:09:38;0.60;;;0.60;;
13067;SDS011;6600;51.362;6.686;2023-05-07T10:12:07;0.70;;;0.70;;
13067;SDS011;6600;51.362;6.686;2023-05-07T10:14:32;0.60;;;0.60;;
13067;SDS011;6600;51.362;6.686;2023-05-07T10:16:58;1.60;;;0.80;;
13067;SDS011;6600;51.362;6.686;2023-05-07T10:19:25;1.07;;;0.97;;
13067;SDS011;6600;51.362;6.686;2023-05-07T10:21:55;0.60;;;0.60;;
13067;SDS011;6600;51.362;6.686;2023-05-07T10:24:34;1.10;;;1.00;;
13067;SDS011;6600;51.362;6.686;2023-05-07T10:27:02;0.87;;;0.73;;
13067;SDS011;6600;51.362;6.686;2023-05-07T10:29:37;0.80;;;0.80;;
13067;SDS011;6600;51.362;6.686;2023-05-07T10:34:47;1.00;;;0.70;;
13067;SDS011;6600;51.362;6.686;2023-05-07T10:37:15;1.00;;;1.00;;
13067;SDS011;6600;51.362;6.686;2023-05-07T10:39:41;1.27;;;0.70;;
13067;SDS011;6600;51.362;6.686;2023-05-07T10:42:08;0.80;;;0.80;;
13067;SDS011;6600;51.362;6.686;2023-05-07T10:44:34;0.70;;;0.70;;
13067;SDS011;6600;51.362;6.686;2023-05-07T10:47:07;0.80;;;0.80;;
13067;SDS011;6600;51.362;6.686;2023-05-07T10:49:34;0.87;;;0.80;;
13067;SDS011;6600;51.362;6.686;2023-05-07T10:52:23;0.80;;;0.80;;
13067;SDS011;6600;51.362;6.686;2023-05-07T10:57:46;1.97;;;0.63;;
13067;SDS011;6600;51.362;6.686;2023-05-07T11:05:28;0.70;;;0.70;;
13067;SDS011;6600;51.362;6.686;2023-05-07T11:07:55;0.70;;;0.70;;
13067;SDS011;6600;51.362;6.686;2023-05-07T11:16:16;0.87;;;0.80;;
13067;SDS011;6600;51.362;6.686;2023-05-07T11:18:49;0.80;;;0.80;;
13067;SDS011;6600;51.362;6.686;2023-05-07T11:21:34;1.30;;;0.83;;
13067;SDS011;6600;51.362;6.686;2023-05-07T11:24:04;0.80;;;0.70;;
13067;SDS011;6600;51.362;6.686;2023-05-07T11:26:31;0.90;;;0.80;;
13067;SDS011;6600;51.362;6.686;2023-05-07T11:29:11;0.83;;;0.73;;
13067;SDS011;6600;51.362;6.686;2023-05-07T11:31:40;0.90;;;0.90;;
13067;SDS011;6600;51.362;6.686;2023-05-07T11:34:05;1.00;;;0.93;;
13067;SDS011;6600;51.362;6.686;2023-05-07T11:36:32;1.90;;;1.07;;
13067;SDS011;6600;51.362;6.686;2023-05-07T11:38:58;1.57;;;0.90;;
13067;SDS011;6600;51.362;6.686;2023-05-07T11:41:32;1.77;;;1.00;;
13067;SDS011;6600;51.362;6.686;2023-05-07T11:43:59;2.07;;;1.00;;
13067;SDS011;6600;51.362;6.686;2023-05-07T11:46:26;2.07;;;0.70;;
13067;SDS011;6600;51.362;6.686;2023-05-07T11:48:52;0.70;;;0.70;;
13067;SDS011;6600;51.362;6.686;2023-05-07T11:51:18;0.67;;;0.67;;
13067;SDS011;6600;51.362;6.686;2023-05-07T11:53:45;0.60;;;0.60;;
13067;SDS011;6600;51.362;6.686;2023-05-07T11:56:11;0.73;;;0.73;;
13067;SDS011;6600;51.362;6.686;2023-05-07T11:58:38;0.80;;;0.70;;
13067;SDS011;6600;51.362;6.686;2023-05-07T12:01:07;0.80;;;0.80;;
13067;SDS011;6600;51.362;6.686;2023-05-07T12:03:34;0.70;;;0.70;;
13067;SDS011;6600;51.362;6.686;2023-05-07T12:05:59;0.60;;;0.60;;
13067;SDS011;6600;51.362;6.686;2023-05-07T12:08:25;0.90;;;0.80;;
13067;SDS011;6600;51.362;6.686;2023-05-07T12:10:50;0.60;;;0.60;;
13067;SDS011;6600;51.362;6.686;2023-05-07T12:13:24;1.33;;;0.50;;
13067;SDS011;6600;51.362;6.686;2023-05-07T12:15:50;0.77;;;0.77;;
13067;SDS011;6600;51.362;6.686;2023-05-07T12:18:16;0.70;;;0.70;;
13067;SDS011;6600;51.362;6.686;2023-05-07T12:20:42;0.70;;;0.70;;
13067;SDS011;6600;51.362;6.686;2023-05-07T12:23:08;0.57;;;0.57;;
13067;SDS011;6600;51.362;6.686;2023-05-07T12:25:34;0.63;;;0.60;;
13067;SDS011;6600;51.362;6.686;2023-05-07T12:28:01;0.73;;;0.73;;
13067;SDS011;6600;51.362;6.686;2023-05-07T12:30:28;0.87;;;0.80;;
13067;SDS011;6600;51.362;6.686;2023-05-07T12:32:54;4.63;;;2.27;;
13067;SDS011;6600;51.362;6.686;2023-05-07T12:35:29;0.97;;;0.97;;
13067;SDS011;6600;51.362;6.686;2023-05-07T12:37:56;1.10;;;1.00;;
13067;SDS011;6600;51.362;6.686;2023-05-07T12:40:21;1.70;;;1.30;;
13067;SDS011;6600;51.362;6.686;2023-05-07T12:42:47;0.90;;;0.90;;
13067;SDS011;6600;51.362;6.686;2023-05-07T12:45:19;2.10;;;1.20;;
13067;SDS011;6600;51.362;6.686;2023-05-07T12:47:44;1.13;;;1.03;;
13067;SDS011;6600;51.362;6.686;2023-05-07T12:50:10;1.23;;;0.90;;
13067;SDS011;6600;51.362;6.686;2023-05-07T12:52:36;1.20;;;1.10;;
13067;SDS011;6600;51.362;6.686;2023-05-07T12:55:05;1.13;;;0.90;;
13067;SDS011;6600;51.362;6.686;2023-05-07T12:57:37;1.00;;;1.00;;
13067;SDS011;6600;51.362;6.686;2023-05-07T13:00:03;1.37;;;1.27;;
13067;SDS011;6600;51.362;6.686;2023-05-07T13:02:33;1.03;;;1.00;;
13067;SDS011;6600;51.362;6.686;2023-05-07T13:04:59;1.43;;;1.23;;
13067;SDS011;6600;51.362;6.686;2023-05-07T13:07:25;2.00;;;1.33;;
13067;SDS011;6600;51.362;6.686;2023-05-07T13:09:50;1.40;;;1.30;;
13067;SDS011;6600;51.362;6.686;2023-05-07T13:12:15;2.00;;;1.53;;
13067;SDS011;6600;51.362;6.686;2023-05-07T13:14:41;1.40;;;1.30;;
13067;SDS011;6600;51.362;6.686;2023-05-07T13:17:06;1.53;;;1.20;;
13067;SDS011;6600;51.362;6.686;2023-05-07T13:19:31;1.50;;;1.40;;
13067;SDS011;6600;51.362;6.686;2023-05-07T13:21:57;1.40;;;1.30;;
13067;SDS011;6600;51.362;6.686;2023-05-07T13:24:22;2.20;;;1.17;;
13067;SDS011;6600;51.362;6.686;2023-05-07T13:26:47;2.30;;;1.87;;
13067;SDS011;6600;51.362;6.686;2023-05-07T13:29:13;1.83;;;1.70;;
13067;SDS011;6600;51.362;6.686;2023-05-07T13:31:38;1.50;;;1.40;;
13067;SDS011;6600;51.362;6.686;2023-05-07T13:34:07;1.83;;;1.37;;
13067;SDS011;6600;51.362;6.686;2023-05-07T13:36:33;4.13;;;1.60;;
13067;SDS011;6600;51.362;6.686;2023-05-07T13:39:02;2.20;;;1.80;;
13067;SDS011;6600;51.362;6.686;2023-05-07T13:41:28;1.70;;;1.40;;
13067;SDS011;6600;51.362;6.686;2023-05-07T13:43:53;1.70;;;1.60;;
13067;SDS011;6600;51.362;6.686;2023-05-07T13:46:19;2.33;;;1.67;;
13067;SDS011;6600;51.362;6.686;2023-05-07T13:48:44;1.70;;;1.60;;
13067;SDS011;6600;51.362;6.686;2023-05-07T13:51:09;2.40;;;2.03;;
13067;SDS011;6600;51.362;6.686;2023-05-07T13:53:35;2.03;;;1.50;;
13067;SDS011;6600;51.362;6.686;2023-05-07T13:56:01;1.77;;;1.50;;
13067;SDS011;6600;51.362;6.686;2023-05-07T13:58:26;3.03;;;2.00;;
13067;SDS011;6600;51.362;6.686;2023-05-07T14:00:51;4.13;;;2.50;;
13067;SDS011;6600;51.362;6.686;2023-05-07T14:03:17;2.47;;;2.27;;
13067;SDS011;6600;51.362;6.686;2023-05-07T14:05:44;2.33;;;2.13;;
13067;SDS011;6600;51.362;6.686;2023-05-07T14:08:09;2.83;;;1.87;;
13067;SDS011;6600;51.362;6.686;2023-05-07T14:10:35;2.47;;;2.10;;
13067;SDS011;6600;51.362;6.686;2023-05-07T14:13:01;2.17;;;1.90;;
13067;SDS011;6600;51.362;6.686;2023-05-07T14:15:26;3.33;;;2.00;;
13067;SDS011;6600;51.362;6.686;2023-05-07T14:17:51;3.10;;;2.07;;
13067;SDS011;6600;51.362;6.686;2023-05-07T14:20:17;2.37;;;2.10;;
13067;SDS011;6600;51.362;6.686;2023-05-07T14:22:42;3.33;;;2.33;;
13067;SDS011;6600;51.362;6.686;2023-05-07T14:25:08;2.30;;;2.10;;
13067;SDS011;6600;51.362;6.686;2023-05-07T14:27:34;3.13;;;2.20;;
13067;SDS011;6600;51.362;6.686;2023-05-07T14:30:00;2.70;;;2.10;;
13067;SDS011;6600;51.362;6.686;2023-05-07T14:32:25;3.60;;;1.97;;
13067;SDS011;6600;51.362;6.686;2023-05-07T14:34:51;3.83;;;2.37;;
13067;SDS011;6600;51.362;6.686;2023-05-07T14:37:16;2.53;;;2.20;;
13067;SDS011;6600;51.362;6.686;2023-05-07T14:39:42;2.13;;;1.93;;
13067;SDS011;6600;51.362;6.686;2023-05-07T14:42:08;5.10;;;2.70;;
13067;SDS011;6600;51.362;6.686;2023-05-07T14:44:34;2.50;;;2.30;;
13067;SDS011;6600;51.362;6.686;2023-05-07T14:47:00;2.57;;;1.97;;
13067;SDS011;6600;51.362;6.686;2023-05-07T14:49:25;2.97;;;1.80;;
13067;SDS011;6600;51.362;6.686;2023-05-07T14:51:51;4.03;;;2.10;;
13067;SDS011;6600;51.362;6.686;2023-05-07T14:54:16;2.83;;;2.43;;
13067;SDS011;6600;51.362;6.686;2023-05-07T14:56:42;3.00;;;1.80;;
13067;SDS011;6600;51.362;6.686;2023-05-07T14:59:07;2.60;;;2.07;;
13067;SDS011;6600;51.362;6.686;2023-05-07T15:01:36;3.13;;;2.47;;
13067;SDS011;6600;51.362;6.686;2023-05-07T15:04:04;2.73;;;2.47;;
13067;SDS011;6600;51.362;6.686;2023-05-07T15:06:30;2.57;;;2.20;;
13067;SDS011;6600;51.362;6.686;2023-05-07T15:08:56;4.03;;;2.53;;
13067;SDS011;6600;51.362;6.686;2023-05-07T15:11:22;5.20;;;3.50;;